Wetterdaten: Woche 30.05.11 - 05.06.11 (KW22)
Datum Zeit Temp. Innen Temp. Aussen UV X Diff Temp. Feuchte Inne Feuchte Auss Sonnenschein Luftdruck Regen ab 0,1 Wind Sonnenschein T Regendauer Windben
30.05.2011 00:00 22,8 C 16,4 C 0,0 UV-I 0,0 C 47 % 70 % 0 % 1015,6 hPa 0,0 l/m 0,0 km/h (0 Bft) 0,00 h 0,00 h 0,0 km/h (0 Bft)
30.05.2011 01:00 22,5 C 15,2 C 0,1 UV-I 0,0 C 48 % 75 % 0 % 1015,7 hPa 0,0 l/m 0,1 km/h (0 Bft) 0,00 h 0,00 h 0,1 km/h (0 Bft)
30.05.2011 02:00 22,3 C 14,6 C 0,0 UV-I 0,0 C 49 % 77 % 0 % 1015,7 hPa 0,0 l/m 0,0 km/h (0 Bft) 0,00 h 0,00 h 0,0 km/h (0 Bft)
30.05.2011 03:00 22,1 C 13,7 C 0,0 UV-I 0,0 C 50 % 80 % 0 % 1015,7 hPa 0,0 l/m 0,0 km/h (0 Bft) 0,00 h 0,00 h 0,0 km/h (0 Bft)
30.05.2011 04:00 21,9 C 12,8 C 0,0 UV-I 0,0 C 50 % 83 % 0 % 1015,5 hPa 0,0 l/m 0,0 km/h (0 Bft) 0,00 h 0,00 h 0,0 km/h (0 Bft)
30.05.2011 05:00 21,8 C 12,2 C 0,1 UV-I 0,0 C 51 % 85 % 0 % 1015,2 hPa 0,0 l/m 0,0 km/h (0 Bft) 0,00 h 0,00 h 0,0 km/h (0 Bft)
30.05.2011 06:00 21,6 C 12,5 C 0,4 UV-I 0,0 C 51 % 86 % 0 % 1015,1 hPa 0,0 l/m 0,7 km/h (0 Bft) 0,00 h 0,03 h 1,5 km/h (1 Bft)
30.05.2011 07:00 21,6 C 14,4 C 1,0 UV-I 0,1 C 51 % 84 % 2 % 1015,1 hPa 0,0 l/m 2,2 km/h (1 Bft) 0,00 h 0,00 h 2,6 km/h (1 Bft)
30.05.2011 08:00 21,8 C 17,0 C 3,0 UV-I 4,4 C 51 % 78 % 79 % 1015,1 hPa 0,0 l/m 2,7 km/h (1 Bft) 0,73 h 0,00 h 4,2 km/h (1 Bft)
30.05.2011 09:00 21,9 C 20,6 C 8,4 UV-I 5,9 C 51 % 65 % 100 % 1015,1 hPa 0,0 l/m 5,4 km/h (1 Bft) 1,00 h 0,00 h 7,2 km/h (2 Bft)
30.05.2011 10:00 22,1 C 23,5 C 9,1 UV-I 5,7 C 51 % 54 % 100 % 1014,7 hPa 0,0 l/m 6,1 km/h (2 Bft) 1,00 h 0,00 h 6,1 km/h (2 Bft)
30.05.2011 11:00 22,3 C 25,5 C 6,5 UV-I 5,6 C 51 % 42 % 100 % 1014,1 hPa 0,0 l/m 6,3 km/h (2 Bft) 1,00 h 0,00 h 7,2 km/h (2 Bft)
30.05.2011 12:00 22,7 C 26,9 C 2,8 UV-I 5,1 C 49 % 38 % 100 % 1013,6 hPa 0,0 l/m 6,7 km/h (2 Bft) 1,00 h 0,00 h 9,5 km/h (2 Bft)
30.05.2011 13:00 23,1 C 28,4 C 4,2 UV-I 4,7 C 48 % 35 % 100 % 1012,7 hPa 0,0 l/m 7,8 km/h (2 Bft) 1,00 h 0,00 h 8,4 km/h (2 Bft)
30.05.2011 14:00 24,0 C 29,9 C 5,8 UV-I 5,2 C 47 % 31 % 100 % 1012,2 hPa 0,0 l/m 5,5 km/h (1 Bft) 1,00 h 0,00 h 7,3 km/h (2 Bft)
30.05.2011 15:00 25,2 C 30,9 C 6,9 UV-I 4,5 C 44 % 28 % 100 % 1011,8 hPa 0,0 l/m 5,5 km/h (1 Bft) 1,00 h 0,00 h 6,4 km/h (2 Bft)
30.05.2011 16:00 26,1 C 31,6 C 9,0 UV-I 4,8 C 42 % 26 % 100 % 1011,4 hPa 0,0 l/m 6,5 km/h (2 Bft) 1,00 h 0,00 h 7,9 km/h (2 Bft)
30.05.2011 17:00 26,7 C 31,9 C 7,9 UV-I 4,7 C 40 % 24 % 100 % 1010,5 hPa 0,0 l/m 5,9 km/h (2 Bft) 1,00 h 0,00 h 7,4 km/h (2 Bft)
30.05.2011 18:00 26,8 C 30,8 C 2,3 UV-I 2,6 C 39 % 26 % 65 % 1009,7 hPa 0,0 l/m 4,0 km/h (1 Bft) 0,43 h 0,00 h 5,0 km/h (1 Bft)
30.05.2011 19:00 26,2 C 29,7 C 1,4 UV-I 0,2 C 39 % 28 % 4 % 1008,7 hPa 0,0 l/m 2,9 km/h (1 Bft) 0,00 h 0,00 h 2,6 km/h (1 Bft)
30.05.2011 20:00 25,8 C 28,4 C 0,5 UV-I 0,0 C 40 % 31 % 0 % 1008,3 hPa 0,0 l/m 0,4 km/h (0 Bft) 0,00 h 0,00 h 0,4 km/h (0 Bft)
30.05.2011 21:00 25,5 C 26,9 C 0,2 UV-I 0,0 C 41 % 36 % 0 % 1008,7 hPa 0,0 l/m 1,7 km/h (1 Bft) 0,00 h 0,40 h 2,5 km/h (1 Bft)
30.05.2011 22:00 25,3 C 24,8 C 0,1 UV-I 0,0 C 42 % 40 % 0 % 1009,1 hPa 0,0 l/m 3,9 km/h (1 Bft) 0,00 h 1,00 h 4,9 km/h (1 Bft)
30.05.2011 23:00 25,0 C 21,3 C 0,1 UV-I 0,0 C 43 % 51 % 0 % 1010,0 hPa 0,0 l/m 4,6 km/h (1 Bft) 0,00 h 1,00 h 5,1 km/h (1 Bft)
31.05.2011 00:00 24,7 C 19,0 C 0,1 UV-I 0,0 C 44 % 58 % 0 % 1010,8 hPa 0,0 l/m 1,4 km/h (1 Bft) 0,00 h 1,00 h 1,6 km/h (1 Bft)
31.05.2011 01:00 24,3 C 18,4 C 0,1 UV-I 0,0 C 45 % 63 % 0 % 1011,2 hPa 0,0 l/m 0,8 km/h (0 Bft) 0,00 h 1,00 h 1,6 km/h (1 Bft)
31.05.2011 02:00 24,1 C 17,9 C 0,1 UV-I 0,0 C 46 % 66 % 0 % 1011,8 hPa 0,0 l/m 1,6 km/h (1 Bft) 0,00 h 1,00 h 2,8 km/h (1 Bft)
31.05.2011 03:00 23,9 C 17,1 C 0,1 UV-I 0,0 C 47 % 73 % 0 % 1011,0 hPa 0,2 l/m 2,2 km/h (1 Bft) 0,00 h 1,00 h 1,9 km/h (1 Bft)
31.05.2011 04:00 23,7 C 16,1 C 0,0 UV-I 0,0 C 48 % 79 % 0 % 1011,6 hPa 0,1 l/m 0,2 km/h (0 Bft) 0,00 h 1,00 h 0,8 km/h (0 Bft)
31.05.2011 05:00 23,5 C 15,8 C 0,1 UV-I 0,0 C 49 % 82 % 0 % 1011,8 hPa 0,0 l/m 0,3 km/h (0 Bft) 0,00 h 1,00 h 0,5 km/h (0 Bft)
31.05.2011 06:00 23,3 C 15,6 C 0,2 UV-I 0,0 C 50 % 83 % 0 % 1012,2 hPa 0,3 l/m 0,3 km/h (0 Bft) 0,00 h 1,00 h 0,4 km/h (0 Bft)
31.05.2011 07:00 23,2 C 14,9 C 0,4 UV-I 0,0 C 51 % 85 % 0 % 1012,6 hPa 2,4 l/m 0,2 km/h (0 Bft) 0,00 h 1,00 h 0,1 km/h (0 Bft)
31.05.2011 08:00 23,0 C 14,4 C 0,6 UV-I 0,0 C 52 % 88 % 0 % 1012,8 hPa 0,7 l/m 0,4 km/h (0 Bft) 0,00 h 1,00 h 0,8 km/h (0 Bft)
31.05.2011 09:00 23,0 C 14,7 C 0,8 UV-I 0,0 C 53 % 90 % 0 % 1013,3 hPa 1,4 l/m 1,4 km/h (1 Bft) 0,00 h 1,00 h 2,1 km/h (1 Bft)
31.05.2011 10:00 23,0 C 14,9 C 1,2 UV-I 0,0 C 53 % 90 % 0 % 1013,9 hPa 0,4 l/m 1,6 km/h (1 Bft) 0,00 h 1,00 h 2,3 km/h (1 Bft)
31.05.2011 11:00 23,0 C 15,0 C 1,3 UV-I 0,0 C 53 % 90 % 1 % 1014,3 hPa 0,8 l/m 1,9 km/h (1 Bft) 0,00 h 1,00 h 2,9 km/h (1 Bft)
31.05.2011 12:00 23,0 C 14,7 C 1,2 UV-I 0,0 C 53 % 90 % 1 % 1014,9 hPa 0,4 l/m 3,4 km/h (1 Bft) 0,00 h 1,00 h 5,8 km/h (2 Bft)
31.05.2011 13:00 22,9 C 14,5 C 1,5 UV-I 0,5 C 54 % 89 % 15 % 1016,0 hPa 0,1 l/m 7,6 km/h (2 Bft) 0,00 h 1,00 h 11,1 km/h (2 Bft)
31.05.2011 14:00 22,8 C 13,6 C 1,6 UV-I 0,7 C 54 % 86 % 19 % 1017,0 hPa 0,0 l/m 10,7 km/h (2 Bft) 0,00 h 1,00 h 11,4 km/h (2 Bft)
31.05.2011 15:00 22,8 C 13,7 C 1,7 UV-I 0,8 C 53 % 83 % 23 % 1018,1 hPa 0,0 l/m 6,7 km/h (2 Bft) 0,00 h 1,00 h 9,4 km/h (2 Bft)
31.05.2011 16:00 22,8 C 13,9 C 1,6 UV-I 0,6 C 52 % 83 % 17 % 1019,0 hPa 0,0 l/m 7,9 km/h (2 Bft) 0,00 h 1,00 h 9,7 km/h (2 Bft)
31.05.2011 17:00 22,6 C 13,7 C 1,1 UV-I 0,5 C 53 % 81 % 15 % 1019,5 hPa 0,0 l/m 8,0 km/h (2 Bft) 0,00 h 1,00 h 7,7 km/h (2 Bft)
31.05.2011 18:00 22,7 C 14,5 C 1,5 UV-I 1,2 C 52 % 78 % 35 % 1019,8 hPa 0,0 l/m 6,6 km/h (2 Bft) 0,00 h 1,00 h 6,8 km/h (2 Bft)
31.05.2011 19:00 22,6 C 14,7 C 0,6 UV-I 0,1 C 52 % 70 % 2 % 1020,6 hPa 0,0 l/m 6,1 km/h (2 Bft) 0,00 h 1,00 h 7,3 km/h (2 Bft)
31.05.2011 20:00 22,3 C 13,8 C 0,2 UV-I 0,0 C 52 % 78 % 0 % 1021,7 hPa 0,0 l/m 2,7 km/h (1 Bft) 0,00 h 1,00 h 3,1 km/h (1 Bft)
31.05.2011 21:00 22,1 C 12,9 C 0,1 UV-I 0,0 C 52 % 83 % 0 % 1022,3 hPa 0,0 l/m 0,4 km/h (0 Bft) 0,00 h 1,00 h 0,9 km/h (0 Bft)
31.05.2011 22:00 21,8 C 12,6 C 0,1 UV-I 0,0 C 53 % 85 % 0 % 1023,4 hPa 0,0 l/m 0,0 km/h (0 Bft) 0,00 h 1,00 h 0,1 km/h (0 Bft)
31.05.2011 23:00 21,7 C 12,7 C 0,1 UV-I 0,0 C 53 % 85 % 0 % 1024,1 hPa 0,0 l/m 0,2 km/h (0 Bft) 0,00 h 1,00 h 0,5 km/h (0 Bft)
01.06.2011 00:00 21,5 C 12,6 C 0,1 UV-I 0,0 C 54 % 85 % 0 % 1024,9 hPa 0,0 l/m 2,7 km/h (1 Bft) 0,00 h 1,00 h 3,0 km/h (1 Bft)
01.06.2011 01:00 21,3 C 11,8 C 0,1 UV-I 0,0 C 54 % 83 % 0 % 1025,5 hPa 0,0 l/m 3,3 km/h (1 Bft) 0,00 h 1,00 h 3,6 km/h (1 Bft)
01.06.2011 02:00 21,1 C 10,7 C 0,1 UV-I 0,0 C 54 % 84 % 0 % 1026,0 hPa 0,0 l/m 1,5 km/h (1 Bft) 0,00 h 1,00 h 2,2 km/h (1 Bft)
01.06.2011 03:00 20,9 C 9,5 C 0,1 UV-I 0,0 C 54 % 85 % 0 % 1026,7 hPa 0,0 l/m 0,1 km/h (0 Bft) 0,00 h 1,00 h 0,2 km/h (0 Bft)
01.06.2011 04:00 20,6 C 8,6 C 0,1 UV-I 0,0 C 53 % 87 % 0 % 1027,1 hPa 0,0 l/m 0,0 km/h (0 Bft) 0,00 h 1,00 h 0,0 km/h (0 Bft)
01.06.2011 05:00 20,4 C 8,0 C 0,1 UV-I 0,0 C 53 % 88 % 0 % 1027,3 hPa 0,0 l/m 0,0 km/h (0 Bft) 0,00 h 1,00 h 0,0 km/h (0 Bft)
01.06.2011 06:00 20,2 C 7,7 C 0,4 UV-I 0,0 C 52 % 89 % 0 % 1027,7 hPa 0,0 l/m 0,0 km/h (0 Bft) 0,00 h 1,00 h 0,0 km/h (0 Bft)
01.06.2011 07:00 20,2 C 8,7 C 0,9 UV-I 0,0 C 53 % 91 % 0 % 1028,6 hPa 0,0 l/m 2,9 km/h (1 Bft) 0,00 h 1,00 h 4,2 km/h (1 Bft)
01.06.2011 08:00 20,2 C 11,2 C 1,9 UV-I 3,4 C 53 % 88 % 70 % 1029,0 hPa 0,0 l/m 5,2 km/h (1 Bft) 0,67 h 0,67 h 5,4 km/h (1 Bft)
01.06.2011 09:00 20,4 C 13,0 C 5,0 UV-I 3,9 C 54 % 80 % 96 % 1029,4 hPa 0,0 l/m 8,9 km/h (2 Bft) 1,00 h 0,90 h 11,0 km/h (2 Bft)
01.06.2011 10:00 20,6 C 14,6 C 7,8 UV-I 5,6 C 53 % 68 % 100 % 1029,4 hPa 0,0 l/m 11,0 km/h (2 Bft) 1,00 h 0,00 h 13,8 km/h (3 Bft)
01.06.2011 11:00 20,7 C 15,8 C 5,0 UV-I 5,1 C 53 % 59 % 100 % 1029,6 hPa 0,0 l/m 10,3 km/h (2 Bft) 1,00 h 0,00 h 11,2 km/h (2 Bft)
01.06.2011 12:00 20,9 C 17,0 C 3,1 UV-I 5,3 C 52 % 52 % 100 % 1029,9 hPa 0,0 l/m 11,7 km/h (2 Bft) 1,00 h 0,00 h 14,1 km/h (3 Bft)
01.06.2011 13:00 21,3 C 17,6 C 3,9 UV-I 4,6 C 50 % 48 % 100 % 1030,3 hPa 0,0 l/m 11,2 km/h (2 Bft) 1,00 h 0,00 h 12,4 km/h (3 Bft)
01.06.2011 14:00 22,3 C 18,7 C 5,2 UV-I 5,0 C 48 % 43 % 100 % 1030,2 hPa 0,0 l/m 10,5 km/h (2 Bft) 1,00 h 0,00 h 11,6 km/h (2 Bft)
01.06.2011 15:00 23,7 C 19,7 C 6,6 UV-I 5,2 C 45 % 38 % 100 % 1030,6 hPa 0,0 l/m 10,7 km/h (2 Bft) 1,00 h 0,00 h 11,4 km/h (2 Bft)
01.06.2011 16:00 24,7 C 20,5 C 8,3 UV-I 5,0 C 42 % 35 % 100 % 1030,7 hPa 0,0 l/m 9,4 km/h (2 Bft) 1,00 h 0,00 h 10,0 km/h (2 Bft)
01.06.2011 17:00 25,1 C 20,6 C 6,9 UV-I 4,6 C 40 % 34 % 100 % 1030,3 hPa 0,0 l/m 10,2 km/h (2 Bft) 1,00 h 0,00 h 10,4 km/h (2 Bft)
01.06.2011 18:00 25,0 C 20,1 C 2,0 UV-I 2,4 C 40 % 35 % 58 % 1030,1 hPa 0,0 l/m 10,1 km/h (2 Bft) 0,40 h 0,00 h 10,8 km/h (2 Bft)
01.06.2011 19:00 24,3 C 19,7 C 1,3 UV-I 0,0 C 40 % 34 % 0 % 1030,0 hPa 0,0 l/m 10,9 km/h (2 Bft) 0,00 h 0,00 h 11,4 km/h (2 Bft)
01.06.2011 20:00 23,8 C 19,0 C 0,7 UV-I 0,0 C 41 % 37 % 0 % 1030,1 hPa 0,0 l/m 8,4 km/h (2 Bft) 0,00 h 0,00 h 8,5 km/h (2 Bft)
01.06.2011 21:00 23,4 C 17,6 C 0,2 UV-I 0,0 C 42 % 43 % 0 % 1030,4 hPa 0,0 l/m 3,4 km/h (1 Bft) 0,00 h 0,00 h 3,0 km/h (1 Bft)
01.06.2011 22:00 22,8 C 15,3 C 0,1 UV-I 0,0 C 44 % 51 % 0 % 1031,2 hPa 0,0 l/m 0,0 km/h (0 Bft) 0,00 h 0,00 h 0,0 km/h (0 Bft)
01.06.2011 23:00 22,4 C 13,4 C 0,1 UV-I 0,0 C 45 % 58 % 0 % 1031,7 hPa 0,0 l/m 0,0 km/h (0 Bft) 0,00 h 0,00 h 0,0 km/h (0 Bft)
02.06.2011 00:00 21,9 C 11,8 C 0,1 UV-I 0,0 C 45 % 65 % 0 % 1032,0 hPa 0,0 l/m 0,0 km/h (0 Bft) 0,00 h 0,00 h 0,0 km/h (0 Bft)
02.06.2011 01:00 21,6 C 10,8 C 0,1 UV-I 0,0 C 46 % 70 % 0 % 1032,0 hPa 0,0 l/m 0,0 km/h (0 Bft) 0,00 h 0,00 h 0,0 km/h (0 Bft)
02.06.2011 02:00 21,3 C 9,9 C 0,1 UV-I 0,0 C 46 % 74 % 0 % 1032,1 hPa 0,0 l/m 0,0 km/h (0 Bft) 0,00 h 0,00 h 0,0 km/h (0 Bft)
02.06.2011 03:00 21,1 C 9,0 C 0,1 UV-I 0,0 C 46 % 77 % 0 % 1032,1 hPa 0,0 l/m 0,0 km/h (0 Bft) 0,00 h 0,00 h 0,0 km/h (0 Bft)
02.06.2011 04:00 20,9 C 8,3 C 0,1 UV-I 0,0 C 46 % 80 % 0 % 1032,3 hPa 0,0 l/m 0,0 km/h (0 Bft) 0,00 h 0,00 h 0,0 km/h (0 Bft)
02.06.2011 05:00 20,6 C 7,5 C 0,1 UV-I 0,0 C 46 % 82 % 0 % 1032,6 hPa 0,0 l/m 0,0 km/h (0 Bft) 0,00 h 0,00 h 0,0 km/h (0 Bft)
02.06.2011 06:00 20,4 C 7,3 C 0,5 UV-I 0,0 C 46 % 83 % 0 % 1032,8 hPa 0,0 l/m 0,0 km/h (0 Bft) 0,00 h 0,00 h 0,0 km/h (0 Bft)
02.06.2011 07:00 20,4 C 9,2 C 1,0 UV-I 0,0 C 47 % 83 % 0 % 1033,1 hPa 0,0 l/m 0,0 km/h (0 Bft) 0,00 h 0,00 h 0,0 km/h (0 Bft)
02.06.2011 08:00 20,4 C 13,8 C 3,2 UV-I 4,6 C 48 % 62 % 78 % 1033,4 hPa 0,0 l/m 2,8 km/h (1 Bft) 0,73 h 0,00 h 5,1 km/h (1 Bft)
02.06.2011 09:00 20,5 C 17,2 C 8,8 UV-I 6,1 C 47 % 40 % 100 % 1033,5 hPa 0,0 l/m 7,1 km/h (2 Bft) 1,00 h 0,00 h 10,0 km/h (2 Bft)
02.06.2011 10:00 20,8 C 19,0 C 9,3 UV-I 6,1 C 46 % 33 % 100 % 1033,6 hPa 0,0 l/m 7,9 km/h (2 Bft) 1,00 h 0,00 h 9,1 km/h (2 Bft)
02.06.2011 11:00 20,9 C 20,5 C 6,1 UV-I 6,1 C 45 % 30 % 100 % 1033,4 hPa 0,0 l/m 7,3 km/h (2 Bft) 1,00 h 0,00 h 7,7 km/h (2 Bft)
02.06.2011 12:00 21,2 C 21,9 C 2,6 UV-I 5,6 C 44 % 29 % 100 % 1032,9 hPa 0,0 l/m 7,9 km/h (2 Bft) 1,00 h 0,00 h 9,3 km/h (2 Bft)
02.06.2011 13:00 21,8 C 23,0 C 3,8 UV-I 5,2 C 42 % 26 % 100 % 1031,8 hPa 0,0 l/m 8,2 km/h (2 Bft) 1,00 h 0,00 h 9,2 km/h (2 Bft)
02.06.2011 14:00 22,7 C 24,0 C 5,3 UV-I 4,9 C 40 % 26 % 100 % 1032,3 hPa 0,0 l/m 8,5 km/h (2 Bft) 1,00 h 0,00 h 8,5 km/h (2 Bft)
02.06.2011 15:00 24,1 C 24,3 C 6,7 UV-I 4,6 C 38 % 25 % 100 % 1033,0 hPa 0,0 l/m 10,6 km/h (2 Bft) 1,00 h 0,00 h 12,7 km/h (3 Bft)
02.06.2011 16:00 25,0 C 25,2 C 8,7 UV-I 4,9 C 36 % 24 % 100 % 1033,0 hPa 0,0 l/m 7,7 km/h (2 Bft) 1,00 h 0,00 h 8,5 km/h (2 Bft)
02.06.2011 17:00 25,5 C 25,0 C 7,6 UV-I 4,7 C 35 % 25 % 100 % 1032,8 hPa 0,0 l/m 7,8 km/h (2 Bft) 1,00 h 0,00 h 7,3 km/h (2 Bft)
02.06.2011 18:00 25,4 C 23,9 C 2,1 UV-I 2,5 C 35 % 26 % 60 % 1032,1 hPa 0,0 l/m 6,8 km/h (2 Bft) 0,40 h 0,00 h 7,9 km/h (2 Bft)
02.06.2011 19:00 24,8 C 23,1 C 1,4 UV-I 0,0 C 36 % 28 % 0 % 1031,7 hPa 0,0 l/m 5,9 km/h (2 Bft) 0,00 h 0,00 h 6,2 km/h (2 Bft)
02.06.2011 20:00 24,4 C 22,0 C 0,8 UV-I 0,0 C 36 % 30 % 0 % 1031,7 hPa 0,0 l/m 4,3 km/h (1 Bft) 0,00 h 0,00 h 5,3 km/h (1 Bft)
02.06.2011 21:00 24,0 C 20,3 C 0,2 UV-I 0,0 C 37 % 35 % 0 % 1032,1 hPa 0,0 l/m 0,9 km/h (0 Bft) 0,00 h 0,00 h 1,1 km/h (1 Bft)
02.06.2011 22:00 23,6 C 18,4 C 0,1 UV-I 0,0 C 39 % 41 % 0 % 1032,4 hPa 0,0 l/m 0,0 km/h (0 Bft) 0,00 h 0,00 h 0,0 km/h (0 Bft)
02.06.2011 23:00 23,2 C 16,9 C 0,1 UV-I 0,0 C 40 % 48 % 0 % 1032,6 hPa 0,0 l/m 0,0 km/h (0 Bft) 0,00 h 0,00 h 0,0 km/h (0 Bft)
03.06.2011 00:00 22,8 C 15,1 C 0,1 UV-I 0,0 C 41 % 56 % 0 % 1032,6 hPa 0,0 l/m 0,3 km/h (0 Bft) 0,00 h 0,00 h 0,7 km/h (0 Bft)
03.06.2011 01:00 22,5 C 14,5 C 0,1 UV-I 0,0 C 42 % 62 % 0 % 1032,6 hPa 0,0 l/m 0,3 km/h (0 Bft) 0,00 h 0,00 h 0,5 km/h (0 Bft)
03.06.2011 02:00 22,2 C 15,4 C 0,1 UV-I 0,0 C 44 % 69 % 0 % 1032,5 hPa 0,0 l/m 1,6 km/h (1 Bft) 0,00 h 0,00 h 3,7 km/h (1 Bft)
03.06.2011 03:00 22,1 C 15,7 C 0,1 UV-I 0,0 C 45 % 71 % 0 % 1032,5 hPa 0,0 l/m 3,0 km/h (1 Bft) 0,00 h 0,00 h 4,9 km/h (1 Bft)
03.06.2011 04:00 22,0 C 15,0 C 0,1 UV-I 0,0 C 46 % 75 % 0 % 1032,2 hPa 0,0 l/m 2,7 km/h (1 Bft) 0,00 h 0,00 h 4,0 km/h (1 Bft)
03.06.2011 05:00 21,8 C 14,4 C 0,2 UV-I 0,0 C 47 % 78 % 0 % 1032,0 hPa 0,0 l/m 1,3 km/h (1 Bft) 0,00 h 0,00 h 1,8 km/h (1 Bft)
03.06.2011 06:00 21,8 C 14,1 C 0,5 UV-I 0,0 C 48 % 81 % 0 % 1032,2 hPa 0,0 l/m 1,6 km/h (1 Bft) 0,00 h 0,00 h 2,0 km/h (1 Bft)
03.06.2011 07:00 21,7 C 15,0 C 1,2 UV-I 0,0 C 49 % 79 % 0 % 1032,0 hPa 0,0 l/m 4,8 km/h (1 Bft) 0,00 h 0,00 h 6,4 km/h (2 Bft)
03.06.2011 08:00 21,7 C 17,1 C 3,3 UV-I 3,6 C 49 % 71 % 75 % 1031,8 hPa 0,0 l/m 5,9 km/h (2 Bft) 0,70 h 0,00 h 6,6 km/h (2 Bft)
03.06.2011 09:00 21,8 C 19,7 C 8,4 UV-I 5,7 C 49 % 60 % 100 % 1031,8 hPa 0,0 l/m 6,7 km/h (2 Bft) 1,00 h 0,00 h 8,1 km/h (2 Bft)
03.06.2011 10:00 22,0 C 21,8 C 8,6 UV-I 5,6 C 49 % 56 % 100 % 1031,5 hPa 0,0 l/m 8,1 km/h (2 Bft) 1,00 h 0,00 h 9,5 km/h (2 Bft)
03.06.2011 11:00 22,2 C 23,2 C 6,0 UV-I 5,3 C 49 % 51 % 100 % 1030,9 hPa 0,0 l/m 9,5 km/h (2 Bft) 1,00 h 0,00 h 10,0 km/h (2 Bft)
03.06.2011 12:00 22,5 C 24,5 C 3,1 UV-I 4,9 C 49 % 46 % 100 % 1030,4 hPa 0,0 l/m 9,6 km/h (2 Bft) 1,00 h 0,00 h 11,3 km/h (2 Bft)
03.06.2011 13:00 23,0 C 25,9 C 4,1 UV-I 4,8 C 48 % 42 % 100 % 1030,0 hPa 0,0 l/m 9,2 km/h (2 Bft) 1,00 h 0,00 h 9,8 km/h (2 Bft)
03.06.2011 14:00 23,8 C 26,8 C 5,6 UV-I 4,8 C 47 % 40 % 100 % 1029,3 hPa 0,0 l/m 9,1 km/h (2 Bft) 1,00 h 0,00 h 9,4 km/h (2 Bft)
03.06.2011 15:00 24,8 C 27,2 C 5,9 UV-I 4,2 C 45 % 40 % 99 % 1029,0 hPa 0,0 l/m 9,0 km/h (2 Bft) 1,00 h 0,00 h 11,0 km/h (2 Bft)
03.06.2011 16:00 25,5 C 27,7 C 7,4 UV-I 4,3 C 44 % 39 % 100 % 1028,5 hPa 0,0 l/m 9,2 km/h (2 Bft) 1,00 h 0,00 h 10,1 km/h (2 Bft)
03.06.2011 17:00 25,9 C 27,3 C 5,8 UV-I 4,0 C 43 % 42 % 100 % 1027,7 hPa 0,0 l/m 8,8 km/h (2 Bft) 1,00 h 0,00 h 9,5 km/h (2 Bft)
03.06.2011 18:00 25,9 C 26,4 C 2,3 UV-I 2,3 C 43 % 45 % 61 % 1026,6 hPa 0,0 l/m 8,5 km/h (2 Bft) 0,40 h 0,00 h 8,7 km/h (2 Bft)
03.06.2011 19:00 25,4 C 25,7 C 1,5 UV-I 0,0 C 45 % 46 % 1 % 1025,7 hPa 0,0 l/m 7,2 km/h (2 Bft) 0,00 h 0,00 h 6,8 km/h (2 Bft)
03.06.2011 20:00 25,1 C 24,9 C 0,7 UV-I 0,0 C 46 % 47 % 0 % 1025,2 hPa 0,0 l/m 4,6 km/h (1 Bft) 0,00 h 0,00 h 5,5 km/h (1 Bft)
03.06.2011 21:00 24,8 C 23,8 C 0,2 UV-I 0,0 C 46 % 49 % 0 % 1025,1 hPa 0,0 l/m 4,0 km/h (1 Bft) 0,00 h 0,00 h 4,8 km/h (1 Bft)
03.06.2011 22:00 24,6 C 22,7 C 0,0 UV-I 0,0 C 47 % 52 % 0 % 1025,0 hPa 0,0 l/m 1,6 km/h (1 Bft) 0,00 h 0,00 h 2,0 km/h (1 Bft)
03.06.2011 23:00 24,4 C 21,9 C 0,0 UV-I 0,0 C 47 % 56 % 0 % 1025,1 hPa 0,0 l/m 0,8 km/h (0 Bft) 0,00 h 0,00 h 1,2 km/h (1 Bft)
04.06.2011 00:00 24,1 C 21,2 C 0,0 UV-I 0,0 C 48 % 59 % 0 % 1025,0 hPa 0,0 l/m 0,8 km/h (0 Bft) 0,00 h 0,00 h 1,7 km/h (1 Bft)
04.06.2011 01:00 24,0 C 20,4 C 0,0 UV-I 0,0 C 49 % 62 % 0 % 1024,7 hPa 0,0 l/m 0,7 km/h (0 Bft) 0,00 h 0,00 h 1,6 km/h (1 Bft)
04.06.2011 02:00 23,8 C 19,7 C 0,0 UV-I 0,0 C 49 % 65 % 0 % 1024,3 hPa 0,0 l/m 0,2 km/h (0 Bft) 0,00 h 0,00 h 0,3 km/h (0 Bft)
04.06.2011 03:00 23,6 C 18,8 C 0,0 UV-I 0,0 C 50 % 68 % 0 % 1023,5 hPa 0,0 l/m 0,0 km/h (0 Bft) 0,00 h 0,00 h 0,1 km/h (0 Bft)
04.06.2011 04:00 23,4 C 17,5 C 0,0 UV-I 0,0 C 51 % 72 % 0 % 1023,2 hPa 0,0 l/m 0,0 km/h (0 Bft) 0,00 h 0,00 h 0,1 km/h (0 Bft)
04.06.2011 05:00 23,2 C 16,5 C 0,0 UV-I 0,0 C 51 % 77 % 0 % 1022,8 hPa 0,0 l/m 0,0 km/h (0 Bft) 0,00 h 0,00 h 0,0 km/h (0 Bft)
04.06.2011 06:00 23,1 C 16,9 C 0,4 UV-I 0,0 C 52 % 78 % 0 % 1022,6 hPa 0,0 l/m 0,2 km/h (0 Bft) 0,00 h 0,00 h 0,3 km/h (0 Bft)
04.06.2011 07:00 23,1 C 18,5 C 1,1 UV-I 0,0 C 52 % 74 % 0 % 1022,2 hPa 0,0 l/m 1,0 km/h (0 Bft) 0,00 h 0,00 h 1,3 km/h (1 Bft)
04.06.2011 08:00 23,2 C 20,8 C 2,7 UV-I 3,7 C 53 % 66 % 76 % 1022,0 hPa 0,0 l/m 2,4 km/h (1 Bft) 0,70 h 0,00 h 2,8 km/h (1 Bft)
04.06.2011 09:00 23,4 C 23,2 C 6,8 UV-I 6,4 C 52 % 58 % 100 % 1021,8 hPa 0,0 l/m 3,3 km/h (1 Bft) 1,00 h 0,00 h 4,1 km/h (1 Bft)
04.06.2011 10:00 23,6 C 24,7 C 6,8 UV-I 5,7 C 52 % 54 % 100 % 1021,5 hPa 0,0 l/m 5,3 km/h (1 Bft) 1,00 h 0,00 h 6,4 km/h (2 Bft)
04.06.2011 11:00 23,8 C 26,4 C 6,1 UV-I 6,3 C 52 % 50 % 100 % 1020,9 hPa 0,0 l/m 6,5 km/h (2 Bft) 1,00 h 0,00 h 7,9 km/h (2 Bft)
04.06.2011 12:00 24,1 C 27,4 C 3,8 UV-I 4,5 C 52 % 47 % 100 % 1020,2 hPa 0,0 l/m 6,3 km/h (2 Bft) 1,00 h 0,00 h 6,7 km/h (2 Bft)
04.06.2011 13:00 24,4 C 29,0 C 5,3 UV-I 5,3 C 52 % 42 % 100 % 1019,6 hPa 0,0 l/m 7,4 km/h (2 Bft) 1,00 h 0,00 h 8,5 km/h (2 Bft)
04.06.2011 14:00 25,1 C 30,7 C 6,1 UV-I 4,8 C 50 % 36 % 100 % 1019,0 hPa 0,0 l/m 8,6 km/h (2 Bft) 1,00 h 0,00 h 9,8 km/h (2 Bft)
04.06.2011 15:00 26,1 C 31,0 C 6,7 UV-I 4,4 C 48 % 35 % 100 % 1018,5 hPa 0,0 l/m 8,9 km/h (2 Bft) 1,00 h 0,00 h 9,1 km/h (2 Bft)
04.06.2011 16:00 26,7 C 30,9 C 7,3 UV-I 4,4 C 47 % 36 % 100 % 1017,8 hPa 0,0 l/m 9,4 km/h (2 Bft) 1,00 h 0,00 h 10,8 km/h (2 Bft)
04.06.2011 17:00 27,1 C 30,5 C 6,0 UV-I 4,2 C 46 % 37 % 100 % 1016,9 hPa 0,0 l/m 9,0 km/h (2 Bft) 1,00 h 0,00 h 9,4 km/h (2 Bft)
04.06.2011 18:00 27,0 C 29,3 C 2,4 UV-I 2,0 C 45 % 40 % 56 % 1015,9 hPa 0,0 l/m 7,7 km/h (2 Bft) 0,27 h 0,00 h 7,7 km/h (2 Bft)
04.06.2011 19:00 26,6 C 28,4 C 1,5 UV-I 0,4 C 47 % 41 % 11 % 1015,1 hPa 0,0 l/m 7,8 km/h (2 Bft) 0,00 h 0,00 h 9,0 km/h (2 Bft)
04.06.2011 20:00 26,2 C 27,5 C 0,5 UV-I 0,0 C 48 % 41 % 0 % 1014,5 hPa 0,0 l/m 5,6 km/h (1 Bft) 0,00 h 0,00 h 5,7 km/h (1 Bft)
04.06.2011 21:00 25,9 C 26,4 C 0,2 UV-I 0,0 C 48 % 42 % 0 % 1014,3 hPa 0,0 l/m 4,3 km/h (1 Bft) 0,00 h 0,00 h 5,0 km/h (1 Bft)
04.06.2011 22:00 25,7 C 25,7 C 0,1 UV-I 0,0 C 48 % 42 % 0 % 1014,7 hPa 0,0 l/m 4,4 km/h (1 Bft) 0,00 h 0,00 h 5,3 km/h (1 Bft)
04.06.2011 23:00 25,5 C 25,3 C 0,0 UV-I 0,0 C 48 % 44 % 0 % 1014,3 hPa 0,0 l/m 4,0 km/h (1 Bft) 0,00 h 0,00 h 4,7 km/h (1 Bft)
05.06.2011 00:00 25,4 C 24,3 C 0,0 UV-I 0,0 C 49 % 47 % 0 % 1013,7 hPa 0,0 l/m 4,8 km/h (1 Bft) 0,00 h 0,00 h 6,3 km/h (2 Bft)
05.06.2011 01:00 25,2 C 22,6 C 0,0 UV-I 0,0 C 49 % 54 % 0 % 1013,3 hPa 0,0 l/m 5,1 km/h (1 Bft) 0,00 h 0,00 h 5,1 km/h (1 Bft)
05.06.2011 02:00 25,1 C 21,8 C 0,0 UV-I 0,0 C 50 % 60 % 0 % 1013,1 hPa 0,0 l/m 1,4 km/h (1 Bft) 0,00 h 0,00 h 1,9 km/h (1 Bft)
05.06.2011 03:00 24,9 C 20,1 C 0,0 UV-I 0,0 C 50 % 72 % 0 % 1012,9 hPa 3,0 l/m 3,4 km/h (1 Bft) 0,00 h 0,00 h 4,1 km/h (1 Bft)
05.06.2011 04:00 24,7 C 18,0 C 0,0 UV-I 0,0 C 52 % 85 % 0 % 1011,9 hPa 2,1 l/m 3,3 km/h (1 Bft) 0,00 h 0,00 h 3,8 km/h (1 Bft)
05.06.2011 05:00 24,5 C 17,3 C 0,0 UV-I 0,0 C 53 % 88 % 0 % 1011,3 hPa 0,2 l/m 2,7 km/h (1 Bft) 0,00 h 0,00 h 3,2 km/h (1 Bft)
05.06.2011 06:00 24,3 C 17,0 C 0,0 UV-I 0,0 C 54 % 89 % 0 % 1011,6 hPa 2,1 l/m 3,4 km/h (1 Bft) 0,00 h 0,00 h 4,0 km/h (1 Bft)
05.06.2011 07:00 24,2 C 16,6 C 0,9 UV-I 0,3 C 55 % 90 % 9 % 1011,1 hPa 0,2 l/m 2,3 km/h (1 Bft) 0,00 h 0,00 h 2,7 km/h (1 Bft)
05.06.2011 08:00 24,2 C 17,7 C 2,7 UV-I 3,4 C 55 % 88 % 82 % 1010,9 hPa 0,0 l/m 5,1 km/h (1 Bft) 0,67 h 0,00 h 6,4 km/h (2 Bft)
05.06.2011 09:00 24,4 C 19,0 C 3,0 UV-I 3,4 C 55 % 83 % 86 % 1010,6 hPa 0,0 l/m 4,5 km/h (1 Bft) 0,70 h 0,00 h 4,5 km/h (1 Bft)
05.06.2011 10:00 24,6 C 21,1 C 7,0 UV-I 7,6 C 55 % 76 % 100 % 1010,6 hPa 0,0 l/m 4,7 km/h (1 Bft) 1,00 h 0,00 h 6,7 km/h (2 Bft)
05.06.2011 11:00 24,8 C 22,2 C 5,9 UV-I 6,6 C 54 % 69 % 100 % 1010,0 hPa 0,0 l/m 6,3 km/h (2 Bft) 1,00 h 0,00 h 6,7 km/h (2 Bft)
05.06.2011 12:00 24,9 C 24,0 C 3,9 UV-I 7,1 C 54 % 64 % 100 % 1009,7 hPa 0,0 l/m 4,0 km/h (1 Bft) 1,00 h 0,00 h 4,8 km/h (1 Bft)
05.06.2011 13:00 25,1 C 25,2 C 4,9 UV-I 6,9 C 54 % 61 % 100 % 1009,1 hPa 0,0 l/m 4,8 km/h (1 Bft) 1,00 h 0,00 h 5,4 km/h (1 Bft)
05.06.2011 14:00 25,7 C 26,4 C 6,3 UV-I 6,6 C 53 % 58 % 100 % 1008,2 hPa 0,0 l/m 4,6 km/h (1 Bft) 1,00 h 0,00 h 5,7 km/h (1 Bft)
05.06.2011 15:00 26,4 C 26,2 C 3,5 UV-I 3,5 C 52 % 58 % 74 % 1008,5 hPa 0,0 l/m 4,3 km/h (1 Bft) 0,45 h 0,00 h 4,8 km/h (1 Bft)
05.06.2011 16:00 26,2 C 25,6 C 1,7 UV-I 1,0 C 52 % 62 % 28 % 1007,9 hPa 0,0 l/m 2,4 km/h (1 Bft) 0,00 h 0,00 h 2,5 km/h (1 Bft)
05.06.2011 17:00 26,0 C 25,0 C 0,9 UV-I 0,5 C 53 % 64 % 15 % 1007,3 hPa 0,0 l/m 3,1 km/h (1 Bft) 0,00 h 0,00 h 3,0 km/h (1 Bft)
05.06.2011 18:00 25,8 C 23,0 C 0,2 UV-I 0,0 C 54 % 76 % 0 % 1006,8 hPa 0,3 l/m 0,1 km/h (0 Bft) 0,00 h 0,00 h 0,3 km/h (0 Bft)
05.06.2011 19:00 25,6 C 22,0 C 0,1 UV-I 0,0 C 55 % 82 % 0 % 1006,7 hPa 0,0 l/m 0,2 km/h (0 Bft) 0,00 h 0,00 h 0,3 km/h (0 Bft)
05.06.2011 20:00 25,6 C 21,9 C 0,2 UV-I 0,0 C 57 % 83 % 0 % 1006,6 hPa 0,0 l/m 0,2 km/h (0 Bft) 0,00 h 0,00 h 0,1 km/h (0 Bft)
05.06.2011 21:00 25,4 C 21,3 C 0,0 UV-I 0,0 C 57 % 84 % 0 % 1006,0 hPa 0,0 l/m 0,0 km/h (0 Bft) 0,00 h 0,00 h 0,0 km/h (0 Bft)
05.06.2011 22:00 25,2 C 20,6 C 0,0 UV-I 0,0 C 58 % 86 % 0 % 1005,7 hPa 0,0 l/m 0,0 km/h (0 Bft) 0,00 h 0,00 h 0,0 km/h (0 Bft)
05.06.2011 23:00 25,0 C 20,0 C 0,0 UV-I 0,0 C 59 % 88 % 0 % 1005,7 hPa 0,0 l/m 0,0 km/h (0 Bft) 0,00 h 0,00 h 0,2 km/h (0 Bft)
Min-Datum _ 01.06.11 02.06.11 30.05.11 30.05.11 02.06.11 30.05.11 30.05.11 05.06.11 - 30.05.11 - - 30.05.11
_ Min-Zeit 05:58 05:56 00:00 00:00 18:24 17:10 00:00 23:06 - 00:00 - - 00:00
Minimum _ 20,2 C 7,2 C 0,0 UV-I 0,0 C 34 % 22 % 0 % 1005,5 hPa - 0,0 km/h (0 Bft) - - 0,0 km/h (0 Bft)
Max-Datum _ 04.06.11 30.05.11 30.05.11 05.06.11 05.06.11 31.05.11 30.05.11 02.06.11 05.06.11 31.05.11 30.05.11 30.05.11 31.05.11
_ Max-Zeit 17:40 17:04 17:18 10:16 23:04 12:50 08:18 10:26 03:42 17:02 08:16 06:24 14:06
Maximum _ 27,2 C 32,3 C 10,2 UV-I 8,7 C 59 % 91 % 100 % 1033,8 hPa 3,0 l/m 15,3 km/h
S (3 Bft)
0,03 h 0,03 h 36,0 km/h
SW (5 Bft)
Durchschnitt _ 23,5 C 19,5 C 2,3 UV-I 1,9 C 48 % 61 % 36 % 1021,4 hPa #14,6 l/m 4,1 km/h (1 Bft) #57:15 h #36:02 h 4,8 km/h (1 Bft)
© 2012 W. Hausmann